Time;durP1;ratioP1;P1;durP2;ratioP2;P2;SDS_P1;SDS_P2;PMS_P1;PMS_P2;Temp;Humidity;BMP_temperature;BMP_pressure;BME280_temperature;BME280_humidity;BME280_pressure;Samples;Min_cycle;Max_cycle;Signal;HPM_P1;HPM_P2
2022/08/21 00:00:21;;;;;;;;;;;16.30;99.90;;;;;;5049233;28;19925;-82
2022/08/21 00:02:48;;;;;;;;;;;16.30;99.90;;;;;;5047616;28;19925;-82
2022/08/21 00:05:14;;;;;;;;;;;16.30;99.90;;;;;;5049398;28;19939;-83
2022/08/21 00:07:40;;;;;;;;;;;16.20;99.90;;;;;;5048043;28;20478;-83
2022/08/21 00:10:06;;;;;;;;;;;16.20;99.90;;;;;;5047924;28;19996;-82
2022/08/21 00:12:31;;;;;;;;;;;16.20;99.90;;;;;;5047578;28;19925;-83
2022/08/21 00:14:57;;;;;;;;;;;16.20;99.90;;;;;;5048333;28;19968;-82
2022/08/21 00:17:23;;;;;;;;;;;16.10;99.90;;;;;;5049230;28;19929;-83
2022/08/21 00:19:48;;;;;;;;;;;16.10;99.90;;;;;;5047338;28;19968;-83
2022/08/21 00:22:14;;;;;;;;;;;16.10;99.90;;;;;;5048587;28;19924;-83
2022/08/21 00:24:39;;;;;;;;;;;16.10;99.90;;;;;;5047647;28;19924;-83
2022/08/21 00:27:05;;;;;;;;;;;16.10;99.90;;;;;;5048773;28;19948;-82
2022/08/21 00:29:30;;;;;;;;;;;16.00;99.90;;;;;;5047047;28;19925;-81
2022/08/21 00:31:56;;;;;;;;;;;16.00;99.90;;;;;;5049532;28;20306;-83
2022/08/21 00:34:21;;;;;;;;;;;16.00;99.90;;;;;;5048798;28;19925;-83
2022/08/21 00:36:47;;;;;;;;;;;15.90;99.90;;;;;;5047292;28;20565;-82
2022/08/21 00:39:12;;;;;;;;;;;15.90;99.90;;;;;;5046911;28;19925;-82
2022/08/21 00:41:38;;;;;;;;;;;15.90;99.90;;;;;;5048235;28;19975;-83
2022/08/21 00:44:08;;;;;;;;;;;15.90;99.90;;;;;;5048102;28;19932;-83
2022/08/21 00:46:34;;;;;;;;;;;15.80;99.90;;;;;;5046985;28;20448;-83
2022/08/21 00:48:59;;;;;;;;;;;15.80;99.90;;;;;;5048238;28;19928;-83
2022/08/21 00:51:28;;;;;;;;;;;15.80;99.90;;;;;;5049370;28;19929;-83
2022/08/21 00:53:55;;;;;;;;;;;15.80;99.90;;;;;;5047396;28;19932;-83
2022/08/21 00:56:22;;;;;;;;;;;15.80;99.90;;;;;;5048189;28;20025;-83
2022/08/21 00:58:48;;;;;;;;;;;15.80;99.90;;;;;;5046621;28;20370;-83
2022/08/21 01:01:14;;;;;;;;;;;15.80;99.90;;;;;;5048209;28;19925;-83
2022/08/21 01:03:40;;;;;;;;;;;15.80;99.90;;;;;;5046876;28;19925;-83
2022/08/21 01:06:06;;;;;;;;;;;15.80;99.90;;;;;;5048185;28;19932;-83
2022/08/21 01:08:32;;;;;;;;;;;15.70;99.90;;;;;;5046660;28;20406;-83
2022/08/21 01:10:59;;;;;;;;;;;15.70;99.90;;;;;;5063432;28;20410;-82
2022/08/21 01:13:25;;;;;;;;;;;15.70;99.90;;;;;;5048223;28;19929;-83
2022/08/21 01:15:52;;;;;;;;;;;15.70;99.90;;;;;;5047735;28;19925;-82
2022/08/21 01:18:19;;;;;;;;;;;15.70;99.90;;;;;;5046143;28;19924;-83
2022/08/21 01:20:55;;;;;;;;;;;15.70;99.90;;;;;;5048076;28;19924;-82
2022/08/21 01:23:21;;;;;;;;;;;15.70;99.90;;;;;;5046786;28;19955;-83
2022/08/21 01:25:46;;;;;;;;;;;15.60;99.90;;;;;;5047645;28;19928;-83
2022/08/21 01:28:13;;;;;;;;;;;15.60;99.90;;;;;;5047439;28;19925;-83
2022/08/21 01:30:41;;;;;;;;;;;15.60;99.90;;;;;;5047233;28;19928;-83
2022/08/21 01:33:06;;;;;;;;;;;15.50;99.90;;;;;;5047361;28;20370;-84
2022/08/21 01:35:32;;;;;;;;;;;15.50;99.90;;;;;;5047509;28;19927;-84
2022/08/21 01:37:57;;;;;;;;;;;15.50;99.90;;;;;;5048116;28;19983;-84
2022/08/21 01:40:23;;;;;;;;;;;15.50;99.90;;;;;;5046653;28;19921;-84
2022/08/21 01:42:48;;;;;;;;;;;15.50;99.90;;;;;;5047365;28;20334;-84
2022/08/21 01:45:15;;;;;;;;;;;15.50;99.90;;;;;;5063046;28;19924;-84
2022/08/21 01:47:41;;;;;;;;;;;15.50;99.90;;;;;;5046864;28;19921;-83
2022/08/21 01:50:08;;;;;;;;;;;15.50;99.90;;;;;;5046630;28;19925;-84
2022/08/21 01:52:34;;;;;;;;;;;15.50;99.90;;;;;;5046921;28;19924;-83
2022/08/21 01:54:59;;;;;;;;;;;15.50;99.90;;;;;;5046002;28;19925;-84
2022/08/21 01:57:25;;;;;;;;;;;15.50;99.90;;;;;;5047747;28;20379;-84
2022/08/21 01:59:50;;;;;;;;;;;15.50;99.90;;;;;;5046824;28;19917;-84
2022/08/21 02:02:16;;;;;;;;;;;15.50;99.90;;;;;;5046971;28;20319;-84
2022/08/21 02:04:41;;;;;;;;;;;15.40;99.90;;;;;;5029594;28;19925;-84
2022/08/21 02:07:07;;;;;;;;;;;15.40;99.90;;;;;;5046706;28;19932;-84
2022/08/21 02:09:33;;;;;;;;;;;15.40;99.90;;;;;;5027769;28;20373;-83
2022/08/21 02:11:59;;;;;;;;;;;15.40;99.90;;;;;;5045588;28;19974;-81
2022/08/21 02:14:24;;;;;;;;;;;15.40;99.90;;;;;;5047500;28;20437;-84
2022/08/21 02:16:50;;;;;;;;;;;15.40;99.90;;;;;;5046550;28;19931;-84
2022/08/21 02:19:15;;;;;;;;;;;15.40;99.90;;;;;;5046623;28;20320;-83
2022/08/21 02:21:41;;;;;;;;;;;15.40;99.90;;;;;;5046514;28;19964;-84
2022/08/21 02:24:07;;;;;;;;;;;15.30;99.90;;;;;;5044748;28;20768;-84
2022/08/21 02:26:33;;;;;;;;;;;15.30;99.90;;;;;;5046407;28;19924;-84
2022/08/21 02:28:59;;;;;;;;;;;15.40;99.90;;;;;;5046827;28;20446;-80
2022/08/21 02:31:24;;;;;;;;;;;15.30;99.90;;;;;;5046963;28;19924;-83
2022/08/21 02:33:50;;;;;;;;;;;15.40;99.90;;;;;;5044826;28;20351;-84
2022/08/21 02:36:15;;;;;;;;;;;15.40;99.90;;;;;;5046579;28;19928;-84
2022/08/21 02:38:41;;;;;;;;;;;15.40;99.90;;;;;;5045052;28;19925;-83
2022/08/21 02:41:08;;;;;;;;;;;15.40;99.90;;;;;;5046723;28;20011;-83
2022/08/21 02:43:34;;;;;;;;;;;15.40;99.90;;;;;;5044971;28;20410;-84
2022/08/21 02:46:00;;;;;;;;;;;15.40;99.90;;;;;;5046509;28;20019;-83
2022/08/21 02:48:27;;;;;;;;;;;15.40;99.90;;;;;;5046856;28;19970;-84
2022/08/21 02:51:03;;;;;;;;;;;15.40;99.90;;;;;;5045829;28;20478;-84
2022/08/21 02:53:29;;;;;;;;;;;15.40;99.90;;;;;;5033303;28;19928;-83
2022/08/21 02:55:56;;;;;;;;;;;15.30;99.90;;;;;;5046992;28;19925;-83
2022/08/21 02:58:23;;;;;;;;;;;15.40;99.90;;;;;;5046381;28;20000;-84
2022/08/21 03:00:49;;;;;;;;;;;15.30;99.90;;;;;;5046520;28;19948;-84
2022/08/21 03:03:15;;;;;;;;;;;15.30;99.90;;;;;;5045748;28;19932;-83
2022/08/21 03:05:40;;;;;;;;;;;15.20;99.90;;;;;;5045903;28;20291;-84
2022/08/21 03:08:10;;;;;;;;;;;15.20;99.90;;;;;;5043935;28;20375;-84
2022/08/21 03:10:37;;;;;;;;;;;15.20;99.90;;;;;;5045922;28;19943;-84
2022/08/21 03:13:03;;;;;;;;;;;15.20;99.90;;;;;;5045630;28;20023;-84
2022/08/21 03:15:29;;;;;;;;;;;15.20;99.90;;;;;;5046112;28;20032;-84
2022/08/21 03:17:54;;;;;;;;;;;15.20;99.90;;;;;;5046130;28;19925;-84
2022/08/21 03:20:22;;;;;;;;;;;15.20;99.90;;;;;;5046527;28;19924;-84
2022/08/21 03:22:48;;;;;;;;;;;15.20;99.90;;;;;;5043528;28;19932;-84
2022/08/21 03:25:13;;;;;;;;;;;15.10;99.90;;;;;;5045974;28;20415;-84
2022/08/21 03:27:39;;;;;;;;;;;15.10;99.90;;;;;;5044298;28;20036;-83
2022/08/21 03:30:05;;;;;;;;;;;15.10;99.90;;;;;;5045931;28;19932;-84
2022/08/21 03:32:31;;;;;;;;;;;15.00;99.90;;;;;;5045525;28;20015;-83
2022/08/21 03:34:57;;;;;;;;;;;15.10;99.90;;;;;;5046366;28;20015;-83
2022/08/21 03:37:24;;;;;;;;;;;15.00;99.90;;;;;;5045581;28;19924;-84
2022/08/21 03:39:49;;;;;;;;;;;15.00;99.90;;;;;;5043268;28;19932;-83
2022/08/21 03:42:15;;;;;;;;;;;15.00;99.90;;;;;;5044965;28;20291;-85
2022/08/21 03:44:41;;;;;;;;;;;15.00;99.90;;;;;;5044719;28;19925;-84
2022/08/21 03:47:06;;;;;;;;;;;15.00;99.90;;;;;;5045898;28;19977;-84
2022/08/21 03:49:32;;;;;;;;;;;15.00;99.90;;;;;;5044891;28;19925;-85
2022/08/21 03:51:58;;;;;;;;;;;15.00;99.90;;;;;;5046404;28;20035;-83
2022/08/21 03:54:23;;;;;;;;;;;15.00;99.90;;;;;;5044088;28;20016;-84
2022/08/21 03:56:49;;;;;;;;;;;15.10;99.90;;;;;;5044101;28;19940;-83
2022/08/21 03:59:14;;;;;;;;;;;15.00;99.90;;;;;;5045582;28;19925;-84
2022/08/21 04:01:50;;;;;;;;;;;15.00;99.90;;;;;;5045198;28;19921;-83
2022/08/21 04:04:16;;;;;;;;;;;15.00;99.90;;;;;;5044350;28;20297;-84
2022/08/21 04:06:41;;;;;;;;;;;15.00;99.90;;;;;;5045481;28;20011;-84
2022/08/21 04:09:06;;;;;;;;;;;15.00;99.90;;;;;;5044901;28;19955;-84
2022/08/21 04:11:32;;;;;;;;;;;15.00;99.90;;;;;;5044118;28;19924;-83
2022/08/21 04:13:57;;;;;;;;;;;15.00;99.90;;;;;;5047222;28;20023;-84
2022/08/21 04:16:23;;;;;;;;;;;15.00;99.90;;;;;;5048950;28;20391;-84
2022/08/21 04:18:48;;;;;;;;;;;15.00;99.90;;;;;;5048327;28;19944;-83
2022/08/21 04:21:14;;;;;;;;;;;15.10;99.90;;;;;;5049267;28;19986;-84
2022/08/21 04:23:39;;;;;;;;;;;15.10;99.90;;;;;;5048053;28;19932;-84
2022/08/21 04:26:06;;;;;;;;;;;15.10;99.90;;;;;;5048681;28;19925;-84
2022/08/21 04:28:31;;;;;;;;;;;15.10;99.90;;;;;;5048755;28;19925;-84
2022/08/21 04:30:57;;;;;;;;;;;15.10;99.90;;;;;;5049336;28;19948;-84
2022/08/21 04:33:23;;;;;;;;;;;15.10;99.90;;;;;;5048459;28;19925;-84
2022/08/21 04:35:49;;;;;;;;;;;15.20;99.90;;;;;;5048677;28;20012;-84
2022/08/21 04:38:15;;;;;;;;;;;15.20;99.90;;;;;;5046220;28;19974;-84
2022/08/21 04:40:41;;;;;;;;;;;15.20;99.90;;;;;;5048331;28;19925;-85
2022/08/21 04:43:08;;;;;;;;;;;15.20;99.90;;;;;;5048540;28;20289;-85
2022/08/21 04:45:35;;;;;;;;;;;15.10;99.90;;;;;;5048150;28;19951;-84
2022/08/21 04:48:03;;;;;;;;;;;15.20;99.90;;;;;;5048762;28;19940;-85
2022/08/21 04:50:38;;;;;;;;;;;15.10;99.90;;;;;;5048559;28;20322;-85
2022/08/21 04:53:05;;;;;;;;;;;15.10;99.90;;;;;;5046374;28;19925;-84
2022/08/21 04:55:30;;;;;;;;;;;15.20;99.90;;;;;;5047909;28;19925;-86
2022/08/21 04:57:56;;;;;;;;;;;15.20;99.90;;;;;;5048379;28;19925;-84
2022/08/21 05:00:24;;;;;;;;;;;15.20;99.90;;;;;;5048235;28;19925;-84
2022/08/21 05:02:54;;;;;;;;;;;15.20;99.90;;;;;;5047475;28;19932;-85
2022/08/21 05:05:19;;;;;;;;;;;15.20;99.90;;;;;;5048131;28;19979;-85
2022/08/21 05:07:46;;;;;;;;;;;15.20;99.90;;;;;;5046609;28;20361;-85
2022/08/21 05:10:12;;;;;;;;;;;15.30;99.90;;;;;;5047867;28;19925;-85
2022/08/21 05:12:39;;;;;;;;;;;15.30;99.90;;;;;;5047497;28;19932;-84
2022/08/21 05:15:04;;;;;;;;;;;15.30;99.90;;;;;;5047837;28;19929;-85
2022/08/21 05:17:30;;;;;;;;;;;15.40;99.90;;;;;;5047331;28;19931;-84
2022/08/21 05:19:56;;;;;;;;;;;15.40;99.90;;;;;;5048174;28;20027;-86
2022/08/21 05:22:24;;;;;;;;;;;15.40;99.90;;;;;;5046104;28;20012;-85
2022/08/21 05:24:49;;;;;;;;;;;15.40;99.90;;;;;;5047368;28;19964;-80
2022/08/21 05:27:15;;;;;;;;;;;15.40;99.90;;;;;;5047035;28;20363;-80
2022/08/21 05:29:40;;;;;;;;;;;15.40;99.90;;;;;;5047029;28;19931;-78
2022/08/21 05:32:12;;;;;;;;;;;15.50;99.90;;;;;;5047391;28;19925;-79
2022/08/21 05:34:38;;;;;;;;;;;15.50;99.90;;;;;;5047416;28;19931;-79
2022/08/21 05:37:04;;;;;;;;;;;15.50;99.90;;;;;;5047223;28;20306;-79
2022/08/21 05:39:30;;;;;;;;;;;15.60;99.90;;;;;;5046588;28;19924;-79
2022/08/21 05:41:55;;;;;;;;;;;15.60;99.90;;;;;;5047998;28;20534;-79
2022/08/21 05:44:21;;;;;;;;;;;15.70;99.90;;;;;;5028974;28;19925;-79
2022/08/21 05:46:46;;;;;;;;;;;15.70;99.90;;;;;;5046423;28;20369;-79
2022/08/21 05:49:12;;;;;;;;;;;15.70;99.90;;;;;;5047024;28;19933;-79
2022/08/21 05:51:39;;;;;;;;;;;15.80;99.90;;;;;;5045844;28;19985;-79
2022/08/21 05:54:05;;;;;;;;;;;15.80;99.90;;;;;;5045403;28;19931;-79
2022/08/21 05:56:31;;;;;;;;;;;15.90;99.90;;;;;;5046788;28;19921;-79
2022/08/21 05:58:56;;;;;;;;;;;15.90;99.90;;;;;;5046016;28;19925;-79
2022/08/21 06:01:22;;;;;;;;;;;16.00;99.90;;;;;;5046644;28;20387;-79
2022/08/21 06:03:47;;;;;;;;;;;16.10;99.90;;;;;;5045780;28;19924;-78
2022/08/21 06:06:13;;;;;;;;;;;16.10;99.90;;;;;;5044939;28;20295;-79
2022/08/21 06:08:38;;;;;;;;;;;16.20;99.90;;;;;;5044407;28;20012;-78
2022/08/21 06:11:05;;;;;;;;;;;16.20;99.90;;;;;;5046424;28;19932;-78
2022/08/21 06:13:31;;;;;;;;;;;16.30;99.90;;;;;;5045284;28;19925;-79
2022/08/21 06:16:04;;;;;;;;;;;16.30;99.90;;;;;;5047438;28;20385;-78
2022/08/21 06:18:30;;;;;;;;;;;16.30;99.90;;;;;;5028215;28;19925;-79
2022/08/21 06:20:55;;;;;;;;;;;16.40;99.90;;;;;;5046453;28;19974;-77
2022/08/21 06:23:21;;;;;;;;;;;16.50;99.90;;;;;;5045197;28;19925;-78
2022/08/21 06:25:46;;;;;;;;;;;16.50;99.90;;;;;;5045689;28;19932;-78
2022/08/21 06:28:12;;;;;;;;;;;16.60;99.90;;;;;;5046344;28;19925;-78
2022/08/21 06:30:38;;;;;;;;;;;16.60;99.90;;;;;;5045788;28;20012;-78
2022/08/21 06:33:04;;;;;;;;;;;16.70;99.90;;;;;;5046504;28;19925;-78
2022/08/21 06:35:30;;;;;;;;;;;16.80;99.90;;;;;;5045852;28;19933;-78
2022/08/21 06:37:58;;;;;;;;;;;16.80;99.90;;;;;;5044996;28;19929;-78
2022/08/21 06:40:24;;;;;;;;;;;16.90;99.90;;;;;;5046302;28;19925;-79
2022/08/21 06:42:49;;;;;;;;;;;16.90;99.90;;;;;;5046103;28;20891;-78
2022/08/21 06:45:15;;;;;;;;;;;17.00;99.90;;;;;;5045921;28;19933;-82
2022/08/21 06:47:41;;;;;;;;;;;17.00;99.90;;;;;;5045756;28;20397;-82
2022/08/21 06:50:09;;;;;;;;;;;17.10;99.90;;;;;;5046566;28;19947;-82
2022/08/21 06:52:35;;;;;;;;;;;17.10;99.90;;;;;;5045304;28;20395;-82
2022/08/21 06:55:01;;;;;;;;;;;17.20;99.90;;;;;;5045198;28;19970;-81
2022/08/21 06:57:26;;;;;;;;;;;17.30;99.90;;;;;;5046875;28;19928;-82
2022/08/21 06:59:52;;;;;;;;;;;17.30;99.90;;;;;;5045997;28;20348;-81
2022/08/21 07:02:17;;;;;;;;;;;17.30;99.90;;;;;;5046442;28;19932;-82
2022/08/21 07:04:43;;;;;;;;;;;17.30;99.90;;;;;;5046309;28;20342;-82
2022/08/21 07:07:08;;;;;;;;;;;17.40;99.90;;;;;;5045218;28;20026;-82
2022/08/21 07:09:34;;;;;;;;;;;17.40;99.90;;;;;;5045520;28;19925;-83
2022/08/21 07:12:00;;;;;;;;;;;17.40;99.90;;;;;;5044894;28;20413;-83
2022/08/21 07:14:25;;;;;;;;;;;17.50;99.90;;;;;;5046561;28;19925;-82
2022/08/21 07:16:51;;;;;;;;;;;17.50;99.90;;;;;;5045209;28;20661;-82
2022/08/21 07:19:17;;;;;;;;;;;17.60;99.90;;;;;;5046208;28;19924;-82
2022/08/21 07:21:42;;;;;;;;;;;17.70;99.90;;;;;;5045521;28;20013;-82
2022/08/21 07:24:08;;;;;;;;;;;17.80;99.90;;;;;;5043564;28;19925;-82
2022/08/21 07:26:34;;;;;;;;;;;17.80;99.90;;;;;;5045499;28;20002;-83
2022/08/21 07:28:59;;;;;;;;;;;17.80;99.90;;;;;;5044922;28;19964;-81
2022/08/21 07:31:25;;;;;;;;;;;17.90;99.90;;;;;;5040074;28;20367;-81
2022/08/21 07:33:52;;;;;;;;;;;17.90;99.90;;;;;;5034679;28;19925;-83
2022/08/21 07:36:17;;;;;;;;;;;18.00;99.90;;;;;;5030491;28;20012;-82
2022/08/21 07:38:43;;;;;;;;;;;18.00;99.90;;;;;;5040922;28;20016;-85
2022/08/21 07:41:28;;;;;;;;;;;18.10;99.90;;;;;;5046151;28;20031;-83
2022/08/21 07:43:58;;;;;;;;;;;18.20;99.90;;;;;;5039475;28;19944;-96
2022/08/21 07:46:24;;;;;;;;;;;18.30;99.90;;;;;;5021061;28;19925;-85
2022/08/21 07:48:51;;;;;;;;;;;18.40;99.90;;;;;;5029056;28;19948;-86
2022/08/21 07:51:20;;;;;;;;;;;18.50;99.90;;;;;;5048825;28;20375;-96
2022/08/21 07:53:56;;;;;;;;;;;18.50;99.90;;;;;;5038002;28;19925;-90
2022/08/21 07:56:21;;;;;;;;;;;18.60;99.90;;;;;;5027730;28;19983;-85
2022/08/21 07:58:47;;;;;;;;;;;18.70;99.90;;;;;;5047357;28;19925;-87
2022/08/21 08:01:13;;;;;;;;;;;18.70;99.90;;;;;;5047101;28;20477;-88
2022/08/21 08:03:41;;;;;;;;;;;18.80;99.90;;;;;;5046807;28;19932;-87
2022/08/21 08:06:11;;;;;;;;;;;18.80;99.90;;;;;;5048506;28;20445;-84
2022/08/21 08:08:40;;;;;;;;;;;18.80;99.90;;;;;;5046921;28;19925;-90
2022/08/21 08:11:06;;;;;;;;;;;18.90;99.90;;;;;;5031002;28;19935;-83
2022/08/21 08:13:37;;;;;;;;;;;18.90;99.90;;;;;;5047559;28;19925;-82
2022/08/21 08:16:02;;;;;;;;;;;19.00;99.90;;;;;;5048323;28;19925;-95
2022/08/21 08:18:28;;;;;;;;;;;19.00;99.90;;;;;;5048211;28;20387;-83
2022/08/21 08:20:53;;;;;;;;;;;19.10;99.90;;;;;;5048453;28;19925;-89
2022/08/21 08:23:19;;;;;;;;;;;19.10;99.90;;;;;;5047755;28;19931;-82
2022/08/21 08:25:44;;;;;;;;;;;19.10;99.90;;;;;;5048351;28;19932;-84
2022/08/21 08:28:10;;;;;;;;;;;19.10;99.90;;;;;;5048717;28;20311;-91
2022/08/21 08:30:35;;;;;;;;;;;19.20;99.90;;;;;;5047067;28;19960;-91
2022/08/21 08:33:01;;;;;;;;;;;19.30;99.90;;;;;;5041112;28;19925;-94
2022/08/21 08:35:28;;;;;;;;;;;19.30;99.90;;;;;;5044868;28;20280;-83
2022/08/21 08:37:54;;;;;;;;;;;19.40;99.90;;;;;;5042080;28;19924;-89
2022/08/21 08:40:25;;;;;;;;;;;19.50;99.90;;;;;;5043660;28;19925;-86
2022/08/21 08:42:50;;;;;;;;;;;19.50;99.90;;;;;;5047993;28;20015;-79
2022/08/21 08:45:17;;;;;;;;;;;19.60;99.90;;;;;;5041646;28;20004;-80
2022/08/21 08:47:45;;;;;;;;;;;19.60;99.90;;;;;;5036807;28;20498;-84
2022/08/21 08:50:19;;;;;;;;;;;19.60;99.90;;;;;;5037574;28;19951;-84
2022/08/21 08:52:48;;;;;;;;;;;19.60;99.90;;;;;;5041792;28;19932;-84
2022/08/21 08:55:16;;;;;;;;;;;19.70;99.90;;;;;;5047512;28;19932;-82
2022/08/21 08:57:43;;;;;;;;;;;19.60;99.90;;;;;;5040351;28;19932;-81
2022/08/21 09:00:11;;;;;;;;;;;19.60;99.90;;;;;;5044690;28;19932;-84
2022/08/21 09:02:40;;;;;;;;;;;19.60;99.90;;;;;;5044832;28;19951;-84
2022/08/21 09:05:07;;;;;;;;;;;19.70;99.90;;;;;;5046769;28;19936;-85
2022/08/21 09:07:42;;;;;;;;;;;19.70;99.90;;;;;;5046424;28;20252;-84
2022/08/21 09:10:19;;;;;;;;;;;19.70;99.90;;;;;;5047391;28;19931;-85
2022/08/21 09:13:02;;;;;;;;;;;19.80;99.90;;;;;;5046902;28;19924;-83
2022/08/21 09:15:28;;;;;;;;;;;19.90;99.90;;;;;;5045700;28;20329;-84
2022/08/21 09:18:13;;;;;;;;;;;19.90;99.90;;;;;;5045386;28;20365;-85
2022/08/21 09:20:48;;;;;;;;;;;19.90;99.90;;;;;;5044763;28;20006;-85
2022/08/21 09:23:13;;;;;;;;;;;20.00;99.90;;;;;;5044985;28;19924;-85
2022/08/21 09:25:42;;;;;;;;;;;20.20;99.90;;;;;;5046357;28;19925;-86
2022/08/21 09:28:11;;;;;;;;;;;20.30;99.90;;;;;;5046716;28;19995;-85
2022/08/21 09:30:39;;;;;;;;;;;20.30;99.90;;;;;;5044359;28;19985;-88
2022/08/21 09:33:04;;;;;;;;;;;20.30;99.90;;;;;;5047333;28;19931;-84
2022/08/21 09:35:30;;;;;;;;;;;20.30;99.90;;;;;;5046306;28;19925;-83
2022/08/21 09:37:57;;;;;;;;;;;20.30;99.90;;;;;;5046458;28;19921;-84
2022/08/21 09:40:30;;;;;;;;;;;20.30;99.90;;;;;;5045702;28;20302;-84
2022/08/21 09:43:03;;;;;;;;;;;20.20;99.90;;;;;;5046653;28;19928;-83
2022/08/21 09:45:29;;;;;;;;;;;20.20;99.90;;;;;;5040052;28;20434;-79
2022/08/21 09:47:55;;;;;;;;;;;20.20;99.90;;;;;;5041645;28;20401;-83
2022/08/21 09:50:25;;;;;;;;;;;20.20;99.90;;;;;;5045338;28;20395;-84
2022/08/21 09:52:56;;;;;;;;;;;20.10;99.90;;;;;;5040413;28;19932;-82
2022/08/21 09:58:33;;;;;;;;;;;20.20;99.90;;;;;;5045964;28;19929;-83
2022/08/21 10:01:00;;;;;;;;;;;20.30;99.90;;;;;;5045182;28;20391;-79
2022/08/21 10:03:25;;;;;;;;;;;20.30;99.90;;;;;;5042855;28;19920;-83
2022/08/21 10:05:53;;;;;;;;;;;20.40;99.90;;;;;;5045702;28;20440;-85
2022/08/21 10:08:19;;;;;;;;;;;20.50;99.90;;;;;;5032162;28;20020;-84
2022/08/21 10:10:52;;;;;;;;;;;20.50;99.90;;;;;;5024744;28;19925;-85
2022/08/21 10:13:24;;;;;;;;;;;20.50;99.90;;;;;;5042019;28;20375;-82
2022/08/21 10:15:55;;;;;;;;;;;20.50;99.90;;;;;;5045163;28;20450;-82
2022/08/21 10:18:39;;;;;;;;;;;20.50;99.90;;;;;;5045699;28;20291;-84
2022/08/21 10:21:10;;;;;;;;;;;20.40;99.90;;;;;;5045948;28;19925;-84
2022/08/21 10:23:35;;;;;;;;;;;20.40;99.90;;;;;;5044688;28;19929;-83
2022/08/21 10:26:15;;;;;;;;;;;20.30;99.90;;;;;;5045934;28;19931;-82
2022/08/21 10:28:50;;;;;;;;;;;20.30;99.90;;;;;;5025328;28;19932;-84
2022/08/21 10:31:20;;;;;;;;;;;20.30;99.90;;;;;;5043856;28;19976;-81
2022/08/21 10:33:56;;;;;;;;;;;20.30;99.90;;;;;;5045097;28;19963;-79
2022/08/21 10:36:26;;;;;;;;;;;20.30;99.90;;;;;;5042651;28;19939;-81
2022/08/21 10:39:02;;;;;;;;;;;20.30;99.90;;;;;;5040806;28;19924;-82
2022/08/21 10:41:31;;;;;;;;;;;20.40;99.90;;;;;;5044566;28;19933;-79
2022/08/21 10:44:15;;;;;;;;;;;20.50;99.90;;;;;;5043817;28;19936;-85
2022/08/21 10:46:41;;;;;;;;;;;20.60;99.90;;;;;;5045204;28;19925;-84
2022/08/21 10:49:15;;;;;;;;;;;20.60;99.90;;;;;;5043859;28;19924;-84
2022/08/21 10:51:53;;;;;;;;;;;20.70;99.90;;;;;;5041419;28;19924;-82
2022/08/21 10:54:27;;;;;;;;;;;20.70;99.90;;;;;;5045594;28;20209;-83
2022/08/21 10:56:57;;;;;;;;;;;20.70;99.90;;;;;;5045044;28;19925;-81
2022/08/21 10:59:41;;;;;;;;;;;20.70;99.90;;;;;;5045970;28;19940;-82
2022/08/21 11:02:10;;;;;;;;;;;20.80;99.90;;;;;;5032404;28;19978;-84
2022/08/21 11:04:38;;;;;;;;;;;20.80;99.90;;;;;;5045752;28;19924;-83
2022/08/21 11:07:06;;;;;;;;;;;20.80;99.90;;;;;;5043973;28;19934;-83
2022/08/21 11:09:31;;;;;;;;;;;20.90;99.90;;;;;;5044686;28;19925;-82
2022/08/21 11:12:01;;;;;;;;;;;20.90;99.90;;;;;;5045794;28;19925;-84
2022/08/21 11:14:26;;;;;;;;;;;20.90;99.90;;;;;;5045926;28;19937;-84
2022/08/21 11:16:58;;;;;;;;;;;20.90;99.90;;;;;;5045233;28;20477;-83
2022/08/21 11:19:26;;;;;;;;;;;21.00;99.90;;;;;;5044737;28;20405;-85
2022/08/21 11:22:10;;;;;;;;;;;21.00;99.90;;;;;;5039438;28;19925;-83
2022/08/21 11:24:38;;;;;;;;;;;21.00;99.90;;;;;;5047179;28;19952;-87
2022/08/21 11:27:14;;;;;;;;;;;21.00;99.90;;;;;;5047575;28;19924;-83
2022/08/21 11:29:41;;;;;;;;;;;21.10;99.90;;;;;;5047415;28;20283;-84
2022/08/21 11:32:06;;;;;;;;;;;21.10;99.90;;;;;;5048916;28;19946;-83
2022/08/21 11:34:51;;;;;;;;;;;21.10;99.90;;;;;;5047005;28;20007;-83
2022/08/21 11:37:43;;;;;;;;;;;21.20;99.90;;;;;;5047387;28;19934;-82
2022/08/21 11:40:11;;;;;;;;;;;21.20;99.90;;;;;;5044380;28;19924;-81
2022/08/21 11:43:07;;;;;;;;;;;21.20;99.90;;;;;;5048179;28;19924;-82
2022/08/21 11:45:41;;;;;;;;;;;21.30;99.90;;;;;;5047599;28;19925;-82
2022/08/21 11:48:09;;;;;;;;;;;21.30;99.90;;;;;;5048022;28;20036;-83
2022/08/21 11:50:36;;;;;;;;;;;21.40;99.90;;;;;;5047711;28;20424;-81
2022/08/21 11:53:07;;;;;;;;;;;21.40;99.90;;;;;;5046166;28;20402;-82
2022/08/21 11:55:36;;;;;;;;;;;21.40;99.90;;;;;;5047931;28;19925;-80
2022/08/21 11:58:06;;;;;;;;;;;21.50;99.90;;;;;;5048426;28;19925;-82
2022/08/21 12:00:37;;;;;;;;;;;21.50;99.90;;;;;;5047821;28;19971;-81
2022/08/21 12:03:08;;;;;;;;;;;21.50;99.90;;;;;;5048294;28;20260;-82
2022/08/21 12:05:36;;;;;;;;;;;21.50;99.90;;;;;;5047963;28;19925;-82
2022/08/21 12:08:26;;;;;;;;;;;21.50;99.90;;;;;;5045070;28;19932;-81
2022/08/21 12:11:03;;;;;;;;;;;21.50;99.90;;;;;;5047244;28;19925;-79
2022/08/21 12:13:30;;;;;;;;;;;21.40;99.90;;;;;;5046165;28;19931;-81
2022/08/21 12:16:15;;;;;;;;;;;21.40;99.90;;;;;;5048461;28;20357;-76
2022/08/21 12:18:41;;;;;;;;;;;21.40;99.90;;;;;;5047086;28;19972;-76
2022/08/21 12:21:27;;;;;;;;;;;21.40;99.90;;;;;;5048063;28;19974;-86
2022/08/21 12:24:01;;;;;;;;;;;21.50;99.90;;;;;;5047786;28;19932;-86
2022/08/21 12:26:49;;;;;;;;;;;21.50;99.90;;;;;;5046458;28;20406;-86
2022/08/21 12:29:28;;;;;;;;;;;21.50;99.90;;;;;;5029284;28;19986;-73
2022/08/21 12:32:09;;;;;;;;;;;21.50;99.90;;;;;;5047600;28;19931;-75
2022/08/21 12:34:36;;;;;;;;;;;21.60;99.90;;;;;;5045852;28;20387;-74
2022/08/21 12:37:25;;;;;;;;;;;21.60;99.90;;;;;;5045083;28;19932;-80
2022/08/21 12:39:52;;;;;;;;;;;21.60;99.90;;;;;;4992005;28;20396;-80
2022/08/21 12:42:19;;;;;;;;;;;21.70;99.90;;;;;;5028290;28;19972;-87
2022/08/21 12:44:48;;;;;;;;;;;21.70;99.90;;;;;;5027992;28;19932;-85
2022/08/21 12:47:15;;;;;;;;;;;21.80;99.90;;;;;;5027962;28;19926;-83
2022/08/21 12:50:01;;;;;;;;;;;21.80;99.90;;;;;;5026651;28;19925;-81
2022/08/21 12:52:33;;;;;;;;;;;21.80;99.90;;;;;;5027271;28;19968;-84
2022/08/21 12:54:59;;;;;;;;;;;21.70;99.90;;;;;;5028117;28;19931;-81
2022/08/21 12:57:26;;;;;;;;;;;21.70;99.90;;;;;;5028416;28;19925;-83
2022/08/21 12:59:54;;;;;;;;;;;21.70;99.90;;;;;;5027660;28;19929;-80
2022/08/21 13:02:20;;;;;;;;;;;21.70;99.90;;;;;;5043068;28;19932;-80
2022/08/21 13:04:47;;;;;;;;;;;21.70;99.90;;;;;;5045908;28;20345;-79
2022/08/21 13:07:15;;;;;;;;;;;21.70;99.90;;;;;;5045661;28;19925;-79
2022/08/21 13:09:44;;;;;;;;;;;21.80;99.90;;;;;;5046570;28;19925;-79
2022/08/21 13:12:09;;;;;;;;;;;21.80;99.90;;;;;;5046703;28;20330;-79
2022/08/21 13:14:37;;;;;;;;;;;21.80;99.90;;;;;;5046966;28;19924;-79
2022/08/21 13:17:04;;;;;;;;;;;21.80;99.90;;;;;;5046799;28;19925;-79
2022/08/21 13:19:29;;;;;;;;;;;21.80;99.90;;;;;;5046612;28;19920;-79
2022/08/21 13:21:55;;;;;;;;;;;21.80;99.90;;;;;;5046432;28;20338;-79
2022/08/21 13:24:24;;;;;;;;;;;21.80;99.90;;;;;;5046814;28;19951;-79
2022/08/21 13:26:50;;;;;;;;;;;21.80;99.90;;;;;;5046218;28;20391;-79
2022/08/21 13:29:17;;;;;;;;;;;21.80;99.90;;;;;;5041727;28;19932;-80
2022/08/21 13:31:47;;;;;;;;;;;21.90;99.90;;;;;;5033424;28;19925;-78
2022/08/21 13:34:14;;;;;;;;;;;21.90;99.90;;;;;;5044475;28;19925;-78
2022/08/21 13:36:41;;;;;;;;;;;21.80;99.90;;;;;;5019992;28;20024;-79
2022/08/21 13:39:08;;;;;;;;;;;21.90;99.90;;;;;;5041434;28;20023;-78
2022/08/21 13:41:36;;;;;;;;;;;21.90;99.90;;;;;;5046194;28;19924;-78
2022/08/21 13:44:13;;;;;;;;;;;21.90;99.90;;;;;;5046340;28;19925;-78
2022/08/21 13:46:38;;;;;;;;;;;21.90;99.90;;;;;;5045384;28;20023;-78
2022/08/21 13:49:05;;;;;;;;;;;21.90;99.90;;;;;;5046273;28;20011;-78
2022/08/21 13:51:33;;;;;;;;;;;21.90;99.90;;;;;;5025345;28;21663;-78
2022/08/21 13:53:59;;;;;;;;;;;21.80;99.90;;;;;;5026892;28;19925;-79
2022/08/21 13:56:26;;;;;;;;;;;21.90;99.90;;;;;;5010121;28;19925;-79
2022/08/21 13:58:52;;;;;;;;;;;21.90;99.90;;;;;;5044351;28;19972;-79
2022/08/21 14:01:28;;;;;;;;;;;21.80;99.90;;;;;;5044085;28;19932;-79
2022/08/21 14:03:57;;;;;;;;;;;21.90;99.90;;;;;;5045268;28;19925;-78
2022/08/21 14:06:27;;;;;;;;;;;21.80;99.90;;;;;;5044481;28;19975;-80
2022/08/21 14:09:08;;;;;;;;;;;21.80;99.90;;;;;;5043188;28;19929;-79
2022/08/21 14:11:34;;;;;;;;;;;21.80;99.90;;;;;;5044565;28;19925;-78
2022/08/21 14:14:01;;;;;;;;;;;21.90;99.90;;;;;;5045168;28;19925;-78
2022/08/21 14:16:29;;;;;;;;;;;21.90;99.90;;;;;;5045476;28;19955;-79
2022/08/21 14:19:01;;;;;;;;;;;21.90;99.90;;;;;;5044068;28;20627;-78
2022/08/21 14:21:29;;;;;;;;;;;21.90;99.90;;;;;;5044242;28;20354;-78
2022/08/21 14:24:09;;;;;;;;;;;21.90;99.90;;;;;;5045117;28;19928;-78